createdAt,value
2022-12-29T00:03:08.515Z,47.25
2022-12-29T00:08:12.800Z,47.13
2022-12-29T00:13:33.611Z,44.88
2022-12-29T00:18:35.855Z,51.40
2022-12-29T00:23:57.796Z,44.55
2022-12-29T00:29:18.398Z,45.85
2022-12-29T00:40:03.150Z,41.08
2022-12-29T00:45:05.913Z,51.58
2022-12-29T00:50:08.464Z,53.17
2022-12-29T00:55:10.629Z,50.60
2022-12-29T01:06:37.870Z,51.00
2022-12-29T01:11:41.646Z,53.25
2022-12-29T01:16:43.895Z,56.60
2022-12-29T01:21:47.312Z,52.65
2022-12-29T01:26:50.246Z,52.67
2022-12-29T01:31:52.641Z,54.85
2022-12-29T01:36:54.880Z,54.22
2022-12-29T01:41:57.007Z,52.13
2022-12-29T01:46:59.196Z,49.72
2022-12-29T01:52:06.680Z,48.25
2022-12-29T01:57:15.006Z,44.05
2022-12-29T02:02:17.867Z,42.45
2022-12-29T02:07:23.419Z,39.60
2022-12-29T02:12:28.500Z,40.47
2022-12-29T02:17:33.958Z,41.67
2022-12-29T02:22:47.881Z,37.15
2022-12-29T02:28:05.853Z,29.48
2022-12-29T02:33:23.536Z,26.73
2022-12-29T02:38:47.312Z,26.73
2022-12-29T02:44:10.284Z,26.05
2022-12-29T02:49:17.641Z,25.05
2022-12-29T02:54:40.147Z,24.42
2022-12-29T02:59:45.150Z,24.08
2022-12-29T03:05:19.791Z,24.15
2022-12-29T03:10:30.902Z,22.17
2022-12-29T03:16:05.680Z,23.27
2022-12-29T03:21:17.837Z,22.52
2022-12-29T03:26:22.212Z,24.33
2022-12-29T03:31:25.894Z,23.95
2022-12-29T03:36:52.135Z,26.38
2022-12-29T03:42:03.318Z,24.92
2022-12-29T03:47:06.962Z,27.23
2022-12-29T03:52:12.275Z,25.95
2022-12-29T03:57:14.469Z,24.17
2022-12-29T04:02:16.698Z,34.05
2022-12-29T04:07:20.628Z,27.98
2022-12-29T04:12:22.872Z,23.00
2022-12-29T04:17:24.987Z,24.52
2022-12-29T04:22:27.168Z,23.33
2022-12-29T04:27:29.343Z,24.50
2022-12-29T04:32:31.512Z,23.17
2022-12-29T04:37:35.249Z,24.73
2022-12-29T04:42:37.580Z,22.88
2022-12-29T04:47:39.806Z,26.98
2022-12-29T04:52:41.975Z,24.02
2022-12-29T04:57:44.205Z,23.67
2022-12-29T05:02:46.870Z,24.20
2022-12-29T05:07:49.172Z,24.55
2022-12-29T05:12:54.281Z,25.65
2022-12-29T05:17:56.694Z,26.52
2022-12-29T05:22:59.932Z,23.13
2022-12-29T05:28:02.071Z,22.27
2022-12-29T05:33:04.449Z,25.70
2022-12-29T05:38:06.608Z,23.98
2022-12-29T05:43:10.038Z,22.20
2022-12-29T05:48:12.147Z,25.38
2022-12-29T05:53:14.354Z,24.05
2022-12-29T05:58:19.611Z,25.23
2022-12-29T06:03:21.927Z,24.90
2022-12-29T06:08:24.186Z,23.45
2022-12-29T06:13:26.396Z,23.98
2022-12-29T06:18:28.769Z,26.08
2022-12-29T06:23:33.461Z,26.85
2022-12-29T06:28:35.724Z,27.08
2022-12-29T06:33:38.975Z,31.40
2022-12-29T06:38:43.943Z,28.92
2022-12-29T06:43:46.177Z,29.45
2022-12-29T06:48:48.529Z,34.58
2022-12-29T06:53:50.692Z,38.55
2022-12-29T06:58:52.865Z,45.88
2022-12-29T07:04:03.889Z,46.28
2022-12-29T07:09:06.119Z,42.53
2022-12-29T07:14:08.383Z,44.72
2022-12-29T07:19:10.710Z,39.65
2022-12-29T07:24:16.565Z,40.17
2022-12-29T07:29:25.323Z,37.00
2022-12-29T07:34:28.765Z,36.17
2022-12-29T07:39:30.892Z,34.83
2022-12-29T07:44:33.073Z,25.73
2022-12-29T07:49:35.563Z,26.17
2022-12-29T07:54:38.807Z,29.25
2022-12-29T07:59:41.439Z,29.73
2022-12-29T08:04:43.657Z,29.67
2022-12-29T08:09:45.800Z,28.80
2022-12-29T08:14:48.014Z,28.75
2022-12-29T08:19:50.289Z,27.88
2022-12-29T08:24:52.898Z,28.58
2022-12-29T08:29:56.589Z,28.67
2022-12-29T08:34:58.816Z,29.02
2022-12-29T08:40:05.034Z,29.23
2022-12-29T08:45:08.337Z,31.05
2022-12-29T08:50:10.656Z,34.55
2022-12-29T08:55:15.862Z,37.60
2022-12-29T09:00:18.311Z,40.90
2022-12-29T09:05:20.616Z,38.65
2022-12-29T09:10:22.836Z,43.70
2022-12-29T09:15:25.233Z,42.50
2022-12-29T09:20:27.423Z,39.05
2022-12-29T09:25:30.452Z,38.30
2022-12-29T09:30:32.599Z,32.00
2022-12-29T09:35:34.749Z,32.30
2022-12-29T09:40:37.305Z,32.75
2022-12-29T09:45:47.286Z,29.45
2022-12-29T09:55:59.485Z,26.83
2022-12-29T10:01:15.947Z,27.27
2022-12-29T10:06:33.106Z,26.70
2022-12-29T10:11:54.248Z,27.15
2022-12-29T10:17:17.050Z,25.08
2022-12-29T10:22:21.905Z,23.77
2022-12-29T10:27:25.393Z,23.95
2022-12-29T10:32:41.902Z,25.38
2022-12-29T10:37:54.307Z,25.15
2022-12-29T10:48:31.809Z,25.20
2022-12-29T11:10:36.245Z,25.25
2022-12-29T11:15:57.348Z,22.75
2022-12-29T11:21:05.512Z,24.42
2022-12-29T11:26:22.250Z,23.48
2022-12-29T11:31:24.722Z,21.17
2022-12-29T11:36:27.441Z,23.48
2022-12-29T11:41:32.513Z,24.30
2022-12-29T11:46:39.786Z,22.45
2022-12-29T11:51:49.067Z,21.55
2022-12-29T11:56:53.121Z,22.25
2022-12-29T12:01:56.959Z,22.38
2022-12-29T12:07:11.927Z,21.30
2022-12-29T12:12:32.943Z,19.92
2022-12-29T12:17:44.799Z,20.80
2022-12-29T12:23:00.418Z,20.20
2022-12-29T12:28:07.046Z,20.90
2022-12-29T12:33:27.717Z,20.67
2022-12-29T12:38:51.656Z,21.35
2022-12-29T12:44:15.547Z,19.35
2022-12-29T12:49:55.695Z,19.77
2022-12-29T12:55:36.944Z,20.38
2022-12-29T13:00:50.921Z,18.80
2022-12-29T13:06:02.775Z,16.48
2022-12-29T13:11:23.323Z,17.25
2022-12-29T13:16:55.002Z,17.23
2022-12-29T13:22:14.968Z,18.45
2022-12-29T13:32:35.097Z,17.25
2022-12-29T13:37:48.639Z,17.65
2022-12-29T13:42:52.097Z,15.48
2022-12-29T13:48:01.625Z,10.60
2022-12-29T13:53:06.344Z,10.98
2022-12-29T13:58:40.215Z,12.20
2022-12-29T14:03:49.550Z,12.43
2022-12-29T14:08:55.346Z,13.00
2022-12-29T14:13:58.245Z,14.80
2022-12-29T14:19:17.069Z,16.17
2022-12-29T14:24:44.097Z,15.70
2022-12-29T14:29:48.698Z,15.77
2022-12-29T14:34:54.293Z,16.77
2022-12-29T14:40:30.576Z,16.27
2022-12-29T14:45:38.829Z,17.10
2022-12-29T14:50:44.998Z,17.30
2022-12-29T14:55:57.414Z,18.60
2022-12-29T15:01:01.193Z,22.45
2022-12-29T15:06:10.319Z,21.90
2022-12-29T15:11:19.247Z,22.70
2022-12-29T15:16:27.772Z,23.83
2022-12-29T15:21:37.777Z,25.70
2022-12-29T15:26:47.950Z,30.45
2022-12-29T15:31:50.191Z,29.40
2022-12-29T15:36:52.781Z,31.42
2022-12-29T15:42:27.985Z,34.78
2022-12-29T15:47:31.762Z,35.38
2022-12-29T15:52:35.393Z,36.88
2022-12-29T15:57:44.570Z,37.50
2022-12-29T16:02:47.528Z,39.27
2022-12-29T16:08:01.363Z,40.22
2022-12-29T16:13:27.964Z,39.40
2022-12-29T16:18:35.552Z,40.95
2022-12-29T16:23:38.411Z,37.03
2022-12-29T16:28:45.709Z,37.92
2022-12-29T16:33:52.766Z,35.33
2022-12-29T16:39:25.399Z,33.00
2022-12-29T16:44:30.433Z,36.53
2022-12-29T16:49:38.021Z,35.45
2022-12-29T16:54:42.325Z,34.50
2022-12-29T16:59:46.483Z,31.88
2022-12-29T17:04:50.951Z,31.10
2022-12-29T17:09:56.436Z,29.00
2022-12-29T17:15:07.054Z,33.85
2022-12-29T17:20:27.208Z,33.78
2022-12-29T17:25:38.354Z,32.38
2022-12-29T17:30:41.351Z,32.65
2022-12-29T17:35:43.773Z,33.42
2022-12-29T17:40:46.236Z,30.23
2022-12-29T17:45:54.166Z,39.65
2022-12-29T17:50:58.531Z,33.67
2022-12-29T17:56:00.743Z,37.35
2022-12-29T18:01:03.912Z,40.22
2022-12-29T18:06:08.752Z,37.60
2022-12-29T18:11:23.495Z,44.20
2022-12-29T18:16:25.761Z,44.42
2022-12-29T18:21:27.935Z,40.83
2022-12-29T18:26:32.162Z,42.03
2022-12-29T18:31:36.991Z,46.50
2022-12-29T18:36:39.394Z,44.80
2022-12-29T18:41:41.578Z,45.50
2022-12-29T18:46:44.055Z,41.38
2022-12-29T18:51:46.304Z,41.25
2022-12-29T18:56:48.490Z,40.75
2022-12-29T19:01:51.040Z,38.60
2022-12-29T19:06:53.384Z,38.88
2022-12-29T19:11:55.595Z,41.30
2022-12-29T19:16:57.776Z,41.38
2022-12-29T19:22:00.021Z,47.38
2022-12-29T19:27:02.291Z,46.75
2022-12-29T19:32:06.107Z,41.80
2022-12-29T19:37:08.327Z,44.03
2022-12-29T19:42:10.519Z,51.97
2022-12-29T19:47:20.705Z,55.70
2022-12-29T19:52:23.929Z,52.47
2022-12-29T19:57:27.108Z,51.88
2022-12-29T20:02:32.716Z,49.05
2022-12-29T20:07:35.556Z,60.20
2022-12-29T20:12:38.814Z,81.75
2022-12-29T20:23:03.387Z,72.20
2022-12-29T20:28:05.667Z,65.88
2022-12-29T20:33:09.438Z,63.55
2022-12-29T20:38:11.725Z,64.72
2022-12-29T20:43:16.553Z,67.93
2022-12-29T20:48:18.837Z,70.88
2022-12-29T20:53:21.188Z,70.25
2022-12-29T20:58:24.676Z,64.90
2022-12-29T21:03:27.432Z,60.38
2022-12-29T21:08:33.196Z,57.40
2022-12-29T21:13:35.861Z,59.03
2022-12-29T21:18:38.186Z,62.63
2022-12-29T21:23:40.893Z,53.90
2022-12-29T21:28:44.687Z,54.05
2022-12-29T21:33:50.723Z,49.28
2022-12-29T21:38:53.628Z,48.83
2022-12-29T21:44:14.482Z,58.30
2022-12-29T21:49:16.916Z,51.42
2022-12-29T21:54:41.581Z,51.80
2022-12-29T22:00:02.016Z,58.55
2022-12-29T22:05:24.044Z,60.03
2022-12-29T22:10:44.916Z,42.72
2022-12-29T22:15:47.180Z,43.10
2022-12-29T22:20:49.384Z,45.70
2022-12-29T22:25:53.112Z,38.90
2022-12-29T22:30:58.456Z,52.67
2022-12-29T22:36:00.658Z,39.00
2022-12-29T22:41:03.106Z,50.55
2022-12-29T22:46:08.058Z,53.53
2022-12-29T22:51:10.276Z,59.50
2022-12-29T22:56:14.087Z,45.17
2022-12-29T23:01:18.625Z,37.83
2022-12-29T23:06:20.913Z,45.85
2022-12-29T23:11:23.939Z,37.83
2022-12-29T23:16:26.748Z,39.67
2022-12-29T23:21:28.995Z,34.00
2022-12-29T23:26:37.166Z,34.95
2022-12-29T23:31:40.058Z,36.80
2022-12-29T23:36:43.940Z,37.92
2022-12-29T23:41:46.409Z,36.92
2022-12-29T23:46:48.747Z,36.63
2022-12-29T23:51:51.003Z,37.60
2022-12-29T23:56:53.222Z,39.88
